Albany, CA

8:59 PM PDT on September 30, 2014 (GMT -0700)
Thousand Oaks | Change Station
CLOSE
Current Station
Personal Weather Station
Location: Berkeley, CA
Elevation: 188 ft
Nearby Weather Stations

Elev 188 ft 37.89 °N, 122.28 °W | Updated 14 minutes ago

Clear
Clear
63.2 °F
Feels Like 63.2 °F
N
0.0
Wind Variable Wind from SSW

Today
High -- | Low -- °F
--% Chance of Precip.
Yesterday
High -- | Low -- °F
Precip. -- in
7:04 AM 6:53 PM
Waxing Crescent, 43% visible
Pressure 29.97 in
Visibility 10.0 miles
Clouds Few 1200 ft
Scattered Clouds 20000 ft
Dew Point 57 °F
Humidity 80%
Rainfall 0.00 in
Snow Depth 0 in , 1 in , 0 in
UV 0 out of 12
Pollen 2.80 out of 12
Ozone Good
PM2.5 Good
Flu Activity Not available.
METAR KOAK 300153Z 28011KT 10SM FEW012 SCT200 17/13 A2997 RMK AO2 SLP149 T01720133

More Conditions Fewer Conditions

Pressure 29.97 in
Visibility 10.0 miles
Clouds Few 1200 ft
Scattered Clouds 20000 ft
Dew Point 57 °F
Humidity 80%
Rainfall 0.00 in
Snow Depth 0 in , 1 in , 0 in
UV 0 out of 12
Pollen 2.80 out of 12
Ozone Good
PM2.5 Good
Flu Activity Not available.
METAR KOAK 300153Z 28011KT 10SM FEW012 SCT200 17/13 A2997 RMK AO2 SLP149 T01720133

More Conditions Fewer Conditions

10-Day Weather Forecast

Almanac

Astronomy

Sep. 30, 2014 Rise Set
Actual Time 7:04 AM PDT 6:53 PM PDT
Civil Twilight 6:37 AM PDT 7:19 PM PDT
Nautical Twilight 6:07 AM PDT 7:50 PM PDT
Astronomical Twilight 5:36 AM PDT 8:20 PM PDT
Moon 1:12 PM PDT (9/30) 11:33 PM PDT (9/30)
Length of Visible Light 12h 41m
Length of Day
11h 49m
Tomorrow will be 2m 25s shorter.
Waxing Crescent, 43% of the Moon is Illuminated
Today
Waxing Crescent
Oct 1
First Quarter
Oct 8
Full
Oct 15
Last Quarter
Oct 23
New

Today's Extremes

State Highs State Lows

Community

WunderPhotos

Upload Photos

1,757,829 photos uploaded!

Nearby

Air Quality

  Air Quality AQ Index Pollutant
Yesterday Good
PM2.5
Yesterday Good
OZONE
Current Good
PM2.5
Current Good
OZONE
Tuesday Moderate
PM2.5
Wednesday Good
PM2.5
Thursday Moderate
PM2.5
Friday Moderate
PM2.5
Saturday Moderate
PM2.5
Sunday Moderate
PM2.5

Snow Depth

Station Depth Elevation
Rubicon #2 0 in 7500 ft
Leavitt Meadows 1 in 7200 ft
Squaw Valley 0 in 8200 ft
Monitor Pass 0 in 8350 ft
Leavitt Lake 1 in 9400 ft

Earthquake Activity

City Distance Mag. Time & Date
East Foothills, California 40 miles 2.6 3:34 PM PDT
2014-09-30
South Dos Palos, California 118 miles 2.7 3:08 PM PDT
2014-09-30
South Dos Palos, California 117 miles 2.5 9:18 PM PDT
2014-09-29
American Canyon, California 20 miles 2.5 12:17 AM PDT
2014-09-29
Minimum magnitude displayed is 2.5.

Coastal Water Temperatures

Place Temperature
San Francisco, CA 64.0 °F
Richmond, CA 68.0 °F
Port Chicago, CA 71.1 °F

Nearby Weather Stations